Terminal Aerodrome Forecast
Issued by NWS

Home | Current Version | Previous Version | Graphics & Text | Print | Product List | Glossary On
Versions: 1 2 3 4 5 6 7 8 9 10 11 12 13 14 15 16 17 18 19 20 21 22 23 24 25 26
000
FTUS42 KMHX 311921 AAA
TAFPGV
TAF AMD
KPGV 311921Z 3119/0118 VRB06KT P6SM VCSH OVC060
     FM312200 VRB03KT P6SM VCSH BKN015
     FM010600 00000KT 4SM BR OVC007
      TEMPO 0108/0112 1SM BR OVC003
     FM011500 VRB03KT P6SM BKN025
      AMD LTD TO CLD VIS AND WIND=

USA.gov is the U.S. government's official web portal to all federal, state and local government web resources and services.